sensor_id;sensor_type;location;lat;lon;timestamp;temperature;humidity
40053;DHT22;25758;48.200;16.338;2024-01-10T00:02:19;-0.50;99.90
40053;DHT22;25758;48.200;16.338;2024-01-10T00:04:45;-4.20;99.90
40053;DHT22;25758;48.200;16.338;2024-01-10T00:09:37;-4.10;99.90
40053;DHT22;25758;48.200;16.338;2024-01-10T00:12:02;-4.00;99.90
40053;DHT22;25758;48.200;16.338;2024-01-10T00:14:28;-4.00;99.90
40053;DHT22;25758;48.200;16.338;2024-01-10T00:16:54;-4.00;99.90
40053;DHT22;25758;48.200;16.338;2024-01-10T00:19:19;-1.30;99.90
40053;DHT22;25758;48.200;16.338;2024-01-10T00:21:45;-3.80;99.90
40053;DHT22;25758;48.200;16.338;2024-01-10T00:24:11;-3.80;99.90
40053;DHT22;25758;48.200;16.338;2024-01-10T00:26:36;-3.80;99.90
40053;DHT22;25758;48.200;16.338;2024-01-10T00:29:02;-1.50;99.90
40053;DHT22;25758;48.200;16.338;2024-01-10T00:31:27;-3.80;99.90
40053;DHT22;25758;48.200;16.338;2024-01-10T00:33:53;-3.70;99.90
40053;DHT22;25758;48.200;16.338;2024-01-10T00:38:44;-3.70;99.90
40053;DHT22;25758;48.200;16.338;2024-01-10T00:41:10;-3.90;99.90
40053;DHT22;25758;48.200;16.338;2024-01-10T00:43:38;-3.70;99.90
40053;DHT22;25758;48.200;16.338;2024-01-10T00:46:03;-3.70;99.90
40053;DHT22;25758;48.200;16.338;2024-01-10T00:48:29;-3.80;99.90
40053;DHT22;25758;48.200;16.338;2024-01-10T00:50:55;-3.80;99.90
40053;DHT22;25758;48.200;16.338;2024-01-10T00:53:21;-3.80;99.90
40053;DHT22;25758;48.200;16.338;2024-01-10T00:55:48;-3.90;99.90
40053;DHT22;25758;48.200;16.338;2024-01-10T00:58:16;-3.90;99.90
40053;DHT22;25758;48.200;16.338;2024-01-10T01:00:42;-3.90;99.90
40053;DHT22;25758;48.200;16.338;2024-01-10T01:03:08;-3.90;99.90
40053;DHT22;25758;48.200;16.338;2024-01-10T01:05:36;-3.80;99.90
40053;DHT22;25758;48.200;16.338;2024-01-10T01:08:21;-4.00;99.90
40053;DHT22;25758;48.200;16.338;2024-01-10T01:10:47;-3.90;99.90
40053;DHT22;25758;48.200;16.338;2024-01-10T01:13:13;-3.80;99.90
40053;DHT22;25758;48.200;16.338;2024-01-10T01:15:58;-4.10;99.90
40053;DHT22;25758;48.200;16.338;2024-01-10T01:18:24;-4.10;99.90
40053;DHT22;25758;48.200;16.338;2024-01-10T01:20:50;-4.10;99.90
40053;DHT22;25758;48.200;16.338;2024-01-10T01:23:17;-4.20;99.90
40053;DHT22;25758;48.200;16.338;2024-01-10T01:25:43;-4.10;99.90
40053;DHT22;25758;48.200;16.338;2024-01-10T01:28:08;-0.90;99.90
40053;DHT22;25758;48.200;16.338;2024-01-10T01:30:34;-4.00;99.90
40053;DHT22;25758;48.200;16.338;2024-01-10T01:32:59;-4.00;99.90
40053;DHT22;25758;48.200;16.338;2024-01-10T01:35:25;-3.90;99.90
40053;DHT22;25758;48.200;16.338;2024-01-10T01:37:51;-3.90;99.90
40053;DHT22;25758;48.200;16.338;2024-01-10T01:40:18;-4.00;99.90
40053;DHT22;25758;48.200;16.338;2024-01-10T01:43:37;-4.00;99.90
40053;DHT22;25758;48.200;16.338;2024-01-10T01:45:57;-4.00;99.90
40053;DHT22;25758;48.200;16.338;2024-01-10T01:48:24;-3.90;99.90
40053;DHT22;25758;48.200;16.338;2024-01-10T01:50:58;-3.90;99.90
40053;DHT22;25758;48.200;16.338;2024-01-10T01:53:26;-4.00;99.90
40053;DHT22;25758;48.200;16.338;2024-01-10T01:55:55;-4.00;99.90
40053;DHT22;25758;48.200;16.338;2024-01-10T01:58:22;-4.10;99.90
40053;DHT22;25758;48.200;16.338;2024-01-10T02:00:48;-4.20;99.90
40053;DHT22;25758;48.200;16.338;2024-01-10T02:05:41;-4.40;99.90
40053;DHT22;25758;48.200;16.338;2024-01-10T02:08:08;-4.50;99.90
40053;DHT22;25758;48.200;16.338;2024-01-10T02:10:34;-4.30;99.90
40053;DHT22;25758;48.200;16.338;2024-01-10T02:13:00;-4.30;99.90
40053;DHT22;25758;48.200;16.338;2024-01-10T02:15:26;-4.30;99.90
40053;DHT22;25758;48.200;16.338;2024-01-10T02:17:52;-4.40;99.90
40053;DHT22;25758;48.200;16.338;2024-01-10T02:20:17;-4.40;99.90
40053;DHT22;25758;48.200;16.338;2024-01-10T02:22:43;-4.40;99.90
40053;DHT22;25758;48.200;16.338;2024-01-10T02:25:10;-4.60;99.90
40053;DHT22;25758;48.200;16.338;2024-01-10T02:27:36;-4.70;99.90
40053;DHT22;25758;48.200;16.338;2024-01-10T02:30:04;-4.90;99.90
40053;DHT22;25758;48.200;16.338;2024-01-10T02:34:56;-5.00;99.90
40053;DHT22;25758;48.200;16.338;2024-01-10T02:37:21;-4.90;99.90
40053;DHT22;25758;48.200;16.338;2024-01-10T02:39:47;-4.80;99.90
40053;DHT22;25758;48.200;16.338;2024-01-10T02:42:13;-4.80;99.90
40053;DHT22;25758;48.200;16.338;2024-01-10T02:44:38;-4.90;99.90
40053;DHT22;25758;48.200;16.338;2024-01-10T02:47:05;-4.90;99.90
40053;DHT22;25758;48.200;16.338;2024-01-10T02:49:30;-4.70;99.90
40053;DHT22;25758;48.200;16.338;2024-01-10T02:51:56;-4.60;99.90
40053;DHT22;25758;48.200;16.338;2024-01-10T02:54:21;-4.50;99.90
40053;DHT22;25758;48.200;16.338;2024-01-10T02:59:13;-4.40;99.90
40053;DHT22;25758;48.200;16.338;2024-01-10T03:04:05;-4.50;99.90
40053;DHT22;25758;48.200;16.338;2024-01-10T03:08:56;-4.60;99.90
40053;DHT22;25758;48.200;16.338;2024-01-10T03:11:22;-4.60;99.90
40053;DHT22;25758;48.200;16.338;2024-01-10T03:14:00;-4.80;99.90
40053;DHT22;25758;48.200;16.338;2024-01-10T03:18:52;-4.80;99.90
40053;DHT22;25758;48.200;16.338;2024-01-10T03:24:09;-4.80;99.90
40053;DHT22;25758;48.200;16.338;2024-01-10T03:26:34;-5.00;99.90
40053;DHT22;25758;48.200;16.338;2024-01-10T03:29:00;-5.00;99.90
40053;DHT22;25758;48.200;16.338;2024-01-10T03:31:28;-4.90;99.90
40053;DHT22;25758;48.200;16.338;2024-01-10T03:33:56;-5.10;99.90
40053;DHT22;25758;48.200;16.338;2024-01-10T03:38:47;-5.00;99.90
40053;DHT22;25758;48.200;16.338;2024-01-10T03:41:17;-5.00;99.90
40053;DHT22;25758;48.200;16.338;2024-01-10T03:43:44;-5.00;99.90
40053;DHT22;25758;48.200;16.338;2024-01-10T03:46:10;-4.90;99.90
40053;DHT22;25758;48.200;16.338;2024-01-10T03:48:36;-4.90;99.90
40053;DHT22;25758;48.200;16.338;2024-01-10T03:51:02;-4.90;99.90
40053;DHT22;25758;48.200;16.338;2024-01-10T03:53:28;-5.00;99.90
40053;DHT22;25758;48.200;16.338;2024-01-10T03:55:54;-5.10;99.90
40053;DHT22;25758;48.200;16.338;2024-01-10T03:58:20;-4.90;99.90
40053;DHT22;25758;48.200;16.338;2024-01-10T04:03:12;-4.80;99.90
40053;DHT22;25758;48.200;16.338;2024-01-10T04:08:04;-4.90;99.90
40053;DHT22;25758;48.200;16.338;2024-01-10T04:10:29;-4.80;99.90
40053;DHT22;25758;48.200;16.338;2024-01-10T04:12:55;-4.80;99.90
40053;DHT22;25758;48.200;16.338;2024-01-10T04:17:47;-4.80;99.90
40053;DHT22;25758;48.200;16.338;2024-01-10T04:20:13;-4.90;99.90
40053;DHT22;25758;48.200;16.338;2024-01-10T04:22:38;-4.70;99.90
40053;DHT22;25758;48.200;16.338;2024-01-10T04:25:06;-4.60;99.90
40053;DHT22;25758;48.200;16.338;2024-01-10T04:27:32;-4.60;99.90
40053;DHT22;25758;48.200;16.338;2024-01-10T04:29:58;-4.60;99.90
40053;DHT22;25758;48.200;16.338;2024-01-10T04:37:16;-4.60;99.90
40053;DHT22;25758;48.200;16.338;2024-01-10T04:39:42;-4.80;99.90
40053;DHT22;25758;48.200;16.338;2024-01-10T04:42:11;-4.90;99.90
40053;DHT22;25758;48.200;16.338;2024-01-10T04:44:39;-5.00;99.90
40053;DHT22;25758;48.200;16.338;2024-01-10T04:47:17;-4.90;99.90
40053;DHT22;25758;48.200;16.338;2024-01-10T04:49:42;-5.10;99.90
40053;DHT22;25758;48.200;16.338;2024-01-10T04:52:08;-5.00;99.90
40053;DHT22;25758;48.200;16.338;2024-01-10T04:54:34;-5.20;99.90
40053;DHT22;25758;48.200;16.338;2024-01-10T05:04:17;-5.60;99.90
40053;DHT22;25758;48.200;16.338;2024-01-10T05:11:35;-5.30;99.90
40053;DHT22;25758;48.200;16.338;2024-01-10T05:14:02;-5.10;99.90
40053;DHT22;25758;48.200;16.338;2024-01-10T05:21:20;-5.50;99.90
40053;DHT22;25758;48.200;16.338;2024-01-10T05:23:46;-5.80;99.90
40053;DHT22;25758;48.200;16.338;2024-01-10T05:28:37;-5.80;99.90
40053;DHT22;25758;48.200;16.338;2024-01-10T05:33:30;-5.90;99.90
40053;DHT22;25758;48.200;16.338;2024-01-10T05:38:21;-6.10;99.90
40053;DHT22;25758;48.200;16.338;2024-01-10T05:43:13;-6.00;99.90
40053;DHT22;25758;48.200;16.338;2024-01-10T05:48:05;-6.00;99.90
40053;DHT22;25758;48.200;16.338;2024-01-10T05:50:31;-6.00;99.90
40053;DHT22;25758;48.200;16.338;2024-01-10T05:52:57;-6.00;99.90
40053;DHT22;25758;48.200;16.338;2024-01-10T06:00:15;-5.70;99.90
40053;DHT22;25758;48.200;16.338;2024-01-10T06:02:42;-5.50;99.90
40053;DHT22;25758;48.200;16.338;2024-01-10T06:05:09;-5.40;99.90
40053;DHT22;25758;48.200;16.338;2024-01-10T06:07:35;-5.50;99.90
40053;DHT22;25758;48.200;16.338;2024-01-10T06:10:01;-5.40;99.90
40053;DHT22;25758;48.200;16.338;2024-01-10T06:14:55;-5.30;99.90
40053;DHT22;25758;48.200;16.338;2024-01-10T06:19:47;-5.20;99.90
40053;DHT22;25758;48.200;16.338;2024-01-10T06:24:39;-5.10;99.90
40053;DHT22;25758;48.200;16.338;2024-01-10T06:27:06;-5.10;99.90
40053;DHT22;25758;48.200;16.338;2024-01-10T06:31:58;-5.30;99.90
40053;DHT22;25758;48.200;16.338;2024-01-10T06:34:26;-2.90;99.90
40053;DHT22;25758;48.200;16.338;2024-01-10T06:39:18;-5.30;99.90
40053;DHT22;25758;48.200;16.338;2024-01-10T06:41:47;-5.30;99.90
40053;DHT22;25758;48.200;16.338;2024-01-10T06:44:13;-5.20;99.90
40053;DHT22;25758;48.200;16.338;2024-01-10T06:46:39;-5.20;99.90
40053;DHT22;25758;48.200;16.338;2024-01-10T06:49:04;-5.20;99.90
40053;DHT22;25758;48.200;16.338;2024-01-10T06:51:31;-2.60;99.90
40053;DHT22;25758;48.200;16.338;2024-01-10T06:53:56;-5.20;99.90
40053;DHT22;25758;48.200;16.338;2024-01-10T06:56:32;-5.10;99.90
40053;DHT22;25758;48.200;16.338;2024-01-10T06:58:58;-4.90;99.90
40053;DHT22;25758;48.200;16.338;2024-01-10T07:01:24;-5.00;99.90
40053;DHT22;25758;48.200;16.338;2024-01-10T07:03:50;-4.90;99.90
40053;DHT22;25758;48.200;16.338;2024-01-10T07:06:16;-4.90;99.90
40053;DHT22;25758;48.200;16.338;2024-01-10T07:08:43;-4.90;99.90
40053;DHT22;25758;48.200;16.338;2024-01-10T07:11:10;-4.80;99.90
40053;DHT22;25758;48.200;16.338;2024-01-10T07:16:03;-4.80;99.90
40053;DHT22;25758;48.200;16.338;2024-01-10T07:18:29;-4.80;99.90
40053;DHT22;25758;48.200;16.338;2024-01-10T07:20:54;-4.80;99.90
40053;DHT22;25758;48.200;16.338;2024-01-10T07:23:20;-4.90;99.90
40053;DHT22;25758;48.200;16.338;2024-01-10T07:25:46;-5.00;99.90
40053;DHT22;25758;48.200;16.338;2024-01-10T07:28:11;-4.90;99.90
40053;DHT22;25758;48.200;16.338;2024-01-10T07:30:37;-5.00;99.90
40053;DHT22;25758;48.200;16.338;2024-01-10T07:33:03;-4.80;99.90
40053;DHT22;25758;48.200;16.338;2024-01-10T07:37:55;-5.00;99.90
40053;DHT22;25758;48.200;16.338;2024-01-10T07:42:48;-4.90;99.90
40053;DHT22;25758;48.200;16.338;2024-01-10T07:45:13;-4.80;99.90
40053;DHT22;25758;48.200;16.338;2024-01-10T07:50:06;-4.80;99.90
40053;DHT22;25758;48.200;16.338;2024-01-10T07:52:33;-4.90;99.90
40053;DHT22;25758;48.200;16.338;2024-01-10T07:54:59;-5.00;99.90
40053;DHT22;25758;48.200;16.338;2024-01-10T07:57:24;-5.00;99.90
40053;DHT22;25758;48.200;16.338;2024-01-10T07:59:50;-4.80;99.90
40053;DHT22;25758;48.200;16.338;2024-01-10T08:02:16;-1.60;99.90
40053;DHT22;25758;48.200;16.338;2024-01-10T08:07:08;-4.60;99.90
40053;DHT22;25758;48.200;16.338;2024-01-10T08:09:34;-1.00;99.90
40053;DHT22;25758;48.200;16.338;2024-01-10T08:12:00;-4.60;99.90
40053;DHT22;25758;48.200;16.338;2024-01-10T08:14:25;-4.60;99.90
40053;DHT22;25758;48.200;16.338;2024-01-10T08:16:52;-4.50;99.90
40053;DHT22;25758;48.200;16.338;2024-01-10T08:19:20;-4.50;99.90
40053;DHT22;25758;48.200;16.338;2024-01-10T08:21:45;-4.60;99.90
40053;DHT22;25758;48.200;16.338;2024-01-10T08:24:11;-4.60;99.90
40053;DHT22;25758;48.200;16.338;2024-01-10T08:26:36;-4.50;99.90
40053;DHT22;25758;48.200;16.338;2024-01-10T08:29:03;-4.50;99.90
40053;DHT22;25758;48.200;16.338;2024-01-10T08:31:29;-4.60;99.90
40053;DHT22;25758;48.200;16.338;2024-01-10T08:33:55;-4.50;99.90
40053;DHT22;25758;48.200;16.338;2024-01-10T08:36:22;-4.40;99.90
40053;DHT22;25758;48.200;16.338;2024-01-10T08:38:50;-4.60;99.90
40053;DHT22;25758;48.200;16.338;2024-01-10T08:46:09;-4.40;99.90
40053;DHT22;25758;48.200;16.338;2024-01-10T08:48:35;-4.40;99.90
40053;DHT22;25758;48.200;16.338;2024-01-10T09:05:38;-4.00;99.90
40053;DHT22;25758;48.200;16.338;2024-01-10T09:08:04;-3.80;99.90
40053;DHT22;25758;48.200;16.338;2024-01-10T09:10:30;-3.50;99.90
40053;DHT22;25758;48.200;16.338;2024-01-10T09:12:57;-3.40;99.90
40053;DHT22;25758;48.200;16.338;2024-01-10T09:17:50;-3.30;99.90
40053;DHT22;25758;48.200;16.338;2024-01-10T09:22:44;-3.00;99.90
40053;DHT22;25758;48.200;16.338;2024-01-10T09:25:09;-3.10;99.90
40053;DHT22;25758;48.200;16.338;2024-01-10T09:27:39;-2.70;99.90
40053;DHT22;25758;48.200;16.338;2024-01-10T09:30:07;-2.10;99.90
40053;DHT22;25758;48.200;16.338;2024-01-10T09:32:36;-2.60;99.90
40053;DHT22;25758;48.200;16.338;2024-01-10T09:35:02;-2.70;99.90
40053;DHT22;25758;48.200;16.338;2024-01-10T09:37:27;-2.80;99.90
40053;DHT22;25758;48.200;16.338;2024-01-10T09:39:53;-2.70;99.90
40053;DHT22;25758;48.200;16.338;2024-01-10T09:42:21;-2.80;99.90
40053;DHT22;25758;48.200;16.338;2024-01-10T09:44:51;-2.50;99.90
40053;DHT22;25758;48.200;16.338;2024-01-10T09:47:19;-1.40;99.90
40053;DHT22;25758;48.200;16.338;2024-01-10T09:52:20;-1.90;99.90
40053;DHT22;25758;48.200;16.338;2024-01-10T09:54:55;-1.90;99.90
40053;DHT22;25758;48.200;16.338;2024-01-10T09:57:25;-1.80;99.90
40053;DHT22;25758;48.200;16.338;2024-01-10T10:05:03;-1.30;99.90
40053;DHT22;25758;48.200;16.338;2024-01-10T10:07:46;-1.10;99.90
40053;DHT22;25758;48.200;16.338;2024-01-10T10:10:12;-1.00;99.90
40053;DHT22;25758;48.200;16.338;2024-01-10T10:12:48;-0.50;99.90
40053;DHT22;25758;48.200;16.338;2024-01-10T10:15:18;-0.80;99.90
40053;DHT22;25758;48.200;16.338;2024-01-10T10:17:46;-1.00;99.90
40053;DHT22;25758;48.200;16.338;2024-01-10T10:20:25;-0.80;99.90
40053;DHT22;25758;48.200;16.338;2024-01-10T10:23:01;-0.80;99.90
40053;DHT22;25758;48.200;16.338;2024-01-10T10:28:04;-0.60;99.90
40053;DHT22;25758;48.200;16.338;2024-01-10T10:30:31;1.60;99.90
40053;DHT22;25758;48.200;16.338;2024-01-10T10:32:58;-0.40;99.90
40053;DHT22;25758;48.200;16.338;2024-01-10T10:35:45;1.90;99.90
40053;DHT22;25758;48.200;16.338;2024-01-10T10:38:12;-0.50;99.90
40053;DHT22;25758;48.200;16.338;2024-01-10T10:40:38;-0.40;99.90
40053;DHT22;25758;48.200;16.338;2024-01-10T10:43:04;0.10;99.90
40053;DHT22;25758;48.200;16.338;2024-01-10T10:48:59;0.30;99.90
40053;DHT22;25758;48.200;16.338;2024-01-10T10:54:34;0.50;99.90
40053;DHT22;25758;48.200;16.338;2024-01-10T10:57:01;0.30;99.90
40053;DHT22;25758;48.200;16.338;2024-01-10T11:06:21;0.50;99.90
40053;DHT22;25758;48.200;16.338;2024-01-10T14:09:17;1.50;99.90
40053;DHT22;25758;48.200;16.338;2024-01-10T14:11:46;1.50;99.90
40053;DHT22;25758;48.200;16.338;2024-01-10T14:16:40;1.50;99.90
40053;DHT22;25758;48.200;16.338;2024-01-10T14:21:33;1.40;99.90
40053;DHT22;25758;48.200;16.338;2024-01-10T14:23:59;1.40;99.90
40053;DHT22;25758;48.200;16.338;2024-01-10T14:26:24;2.80;99.90
40053;DHT22;25758;48.200;16.338;2024-01-10T14:28:52;3.10;99.90
40053;DHT22;25758;48.200;16.338;2024-01-10T14:36:13;1.20;99.90
40053;DHT22;25758;48.200;16.338;2024-01-10T14:38:39;1.20;99.90
40053;DHT22;25758;48.200;16.338;2024-01-10T14:41:06;1.60;99.90
40053;DHT22;25758;48.200;16.338;2024-01-10T14:43:32;2.20;99.90
40053;DHT22;25758;48.200;16.338;2024-01-10T14:45:57;1.40;99.90
40053;DHT22;25758;48.200;16.338;2024-01-10T14:48:23;1.00;99.90
40053;DHT22;25758;48.200;16.338;2024-01-10T14:50:49;3.10;99.90
40053;DHT22;25758;48.200;16.338;2024-01-10T14:53:15;1.00;99.90
40053;DHT22;25758;48.200;16.338;2024-01-10T14:55:40;2.40;99.90
40053;DHT22;25758;48.200;16.338;2024-01-10T14:58:06;1.00;99.90
40053;DHT22;25758;48.200;16.338;2024-01-10T15:00:32;3.70;99.90
40053;DHT22;25758;48.200;16.338;2024-01-10T15:02:58;1.00;99.90
40053;DHT22;25758;48.200;16.338;2024-01-10T15:05:23;3.70;99.90
40053;DHT22;25758;48.200;16.338;2024-01-10T15:07:51;4.00;99.90
40053;DHT22;25758;48.200;16.338;2024-01-10T15:10:16;3.40;99.90
40053;DHT22;25758;48.200;16.338;2024-01-10T15:12:42;1.30;99.90
40053;DHT22;25758;48.200;16.338;2024-01-10T15:15:09;3.90;99.90
40053;DHT22;25758;48.200;16.338;2024-01-10T15:17:35;0.80;99.90
40053;DHT22;25758;48.200;16.338;2024-01-10T15:20:00;1.50;99.90
40053;DHT22;25758;48.200;16.338;2024-01-10T15:22:26;3.60;99.90
40053;DHT22;25758;48.200;16.338;2024-01-10T15:24:52;2.50;99.90
40053;DHT22;25758;48.200;16.338;2024-01-10T15:27:18;3.20;99.90
40053;DHT22;25758;48.200;16.338;2024-01-10T15:29:44;2.80;99.90
40053;DHT22;25758;48.200;16.338;2024-01-10T15:32:09;2.80;99.90
40053;DHT22;25758;48.200;16.338;2024-01-10T15:34:35;2.50;99.90
40053;DHT22;25758;48.200;16.338;2024-01-10T15:37:01;2.70;99.90
40053;DHT22;25758;48.200;16.338;2024-01-10T15:39:26;3.30;99.90
40053;DHT22;25758;48.200;16.338;2024-01-10T15:41:52;0.60;99.90
40053;DHT22;25758;48.200;16.338;2024-01-10T15:44:19;3.10;99.90
40053;DHT22;25758;48.200;16.338;2024-01-10T15:46:44;2.80;99.90
40053;DHT22;25758;48.200;16.338;2024-01-10T15:49:13;0.50;99.90
40053;DHT22;25758;48.200;16.338;2024-01-10T15:54:06;0.50;99.90
40053;DHT22;25758;48.200;16.338;2024-01-10T15:56:31;2.80;99.90
40053;DHT22;25758;48.200;16.338;2024-01-10T15:58:59;3.30;99.90
40053;DHT22;25758;48.200;16.338;2024-01-10T16:01:24;1.30;99.90
40053;DHT22;25758;48.200;16.338;2024-01-10T16:03:50;0.40;99.90
40053;DHT22;25758;48.200;16.338;2024-01-10T16:06:16;0.50;99.90
40053;DHT22;25758;48.200;16.338;2024-01-10T16:08:42;1.80;99.90
40053;DHT22;25758;48.200;16.338;2024-01-10T16:11:09;0.60;99.90
40053;DHT22;25758;48.200;16.338;2024-01-10T16:13:35;2.00;99.90
40053;DHT22;25758;48.200;16.338;2024-01-10T16:16:00;1.30;99.90
40053;DHT22;25758;48.200;16.338;2024-01-10T16:18:30;0.40;99.90
40053;DHT22;25758;48.200;16.338;2024-01-10T16:20:55;0.40;99.90
40053;DHT22;25758;48.200;16.338;2024-01-10T16:23:21;0.30;99.90
40053;DHT22;25758;48.200;16.338;2024-01-10T16:25:46;0.20;99.90
40053;DHT22;25758;48.200;16.338;2024-01-10T16:28:12;0.40;99.90
40053;DHT22;25758;48.200;16.338;2024-01-10T16:30:38;0.20;99.90
40053;DHT22;25758;48.200;16.338;2024-01-10T16:33:04;0.30;99.90
40053;DHT22;25758;48.200;16.338;2024-01-10T16:35:30;0.20;99.90
40053;DHT22;25758;48.200;16.338;2024-01-10T16:37:56;0.20;99.90
40053;DHT22;25758;48.200;16.338;2024-01-10T16:42:48;0.20;99.90
40053;DHT22;25758;48.200;16.338;2024-01-10T16:45:13;0.30;99.90
40053;DHT22;25758;48.200;16.338;2024-01-10T16:50:05;0.20;99.90
40053;DHT22;25758;48.200;16.338;2024-01-10T16:52:31;0.10;99.90
40053;DHT22;25758;48.200;16.338;2024-01-10T16:54:56;0.10;99.90
40053;DHT22;25758;48.200;16.338;2024-01-10T17:04:40;0.00;99.90
40053;DHT22;25758;48.200;16.338;2024-01-10T17:07:06;0.00;99.90
40053;DHT22;25758;48.200;16.338;2024-01-10T17:11:59;0.00;99.90
40053;DHT22;25758;48.200;16.338;2024-01-10T17:14:25;0.00;99.90
40053;DHT22;25758;48.200;16.338;2024-01-10T17:16:50;1.80;99.90
40053;DHT22;25758;48.200;16.338;2024-01-10T17:19:16;2.40;99.90
40053;DHT22;25758;48.200;16.338;2024-01-10T17:21:42;-0.10;99.90
40053;DHT22;25758;48.200;16.338;2024-01-10T17:26:33;-0.10;99.90
40053;DHT22;25758;48.200;16.338;2024-01-10T17:28:59;-0.10;99.90
40053;DHT22;25758;48.200;16.338;2024-01-10T17:33:51;-0.10;99.90
40053;DHT22;25758;48.200;16.338;2024-01-10T17:36:19;-0.10;99.90
40053;DHT22;25758;48.200;16.338;2024-01-10T17:38:44;-0.10;99.90
40053;DHT22;25758;48.200;16.338;2024-01-10T17:41:10;-0.10;99.90
40053;DHT22;25758;48.200;16.338;2024-01-10T17:46:03;-0.10;99.90
40053;DHT22;25758;48.200;16.338;2024-01-10T17:48:28;-0.10;99.90
40053;DHT22;25758;48.200;16.338;2024-01-10T17:50:54;-0.10;99.90
40053;DHT22;25758;48.200;16.338;2024-01-10T17:55:45;-0.20;99.90
40053;DHT22;25758;48.200;16.338;2024-01-10T17:58:11;-0.20;99.90
40053;DHT22;25758;48.200;16.338;2024-01-10T18:03:03;-0.20;99.90
40053;DHT22;25758;48.200;16.338;2024-01-10T18:05:28;-0.30;99.90
40053;DHT22;25758;48.200;16.338;2024-01-10T18:07:54;-0.20;99.90
40053;DHT22;25758;48.200;16.338;2024-01-10T18:12:46;-0.20;99.90
40053;DHT22;25758;48.200;16.338;2024-01-10T18:15:12;-0.20;99.90
40053;DHT22;25758;48.200;16.338;2024-01-10T18:17:37;-0.30;99.90
40053;DHT22;25758;48.200;16.338;2024-01-10T18:20:04;2.80;99.90
40053;DHT22;25758;48.200;16.338;2024-01-10T18:24:55;-0.30;99.90
40053;DHT22;25758;48.200;16.338;2024-01-10T18:29:47;-0.30;99.90
40053;DHT22;25758;48.200;16.338;2024-01-10T18:32:12;-0.30;99.90
40053;DHT22;25758;48.200;16.338;2024-01-10T18:34:38;-0.40;99.90
40053;DHT22;25758;48.200;16.338;2024-01-10T18:41:57;-0.30;99.90
40053;DHT22;25758;48.200;16.338;2024-01-10T18:46:49;-0.30;99.90
40053;DHT22;25758;48.200;16.338;2024-01-10T18:49:16;-0.30;99.90
40053;DHT22;25758;48.200;16.338;2024-01-10T18:51:42;-0.30;99.90
40053;DHT22;25758;48.200;16.338;2024-01-10T18:54:08;-0.30;99.90
40053;DHT22;25758;48.200;16.338;2024-01-10T18:56:33;-0.30;99.90
40053;DHT22;25758;48.200;16.338;2024-01-10T19:01:25;-0.30;99.90
40053;DHT22;25758;48.200;16.338;2024-01-10T19:03:51;-0.40;99.90
40053;DHT22;25758;48.200;16.338;2024-01-10T19:06:17;-0.30;99.90
40053;DHT22;25758;48.200;16.338;2024-01-10T19:08:42;-0.40;99.90
40053;DHT22;25758;48.200;16.338;2024-01-10T19:16:08;-0.40;99.90
40053;DHT22;25758;48.200;16.338;2024-01-10T19:21:02;-0.40;99.90
40053;DHT22;25758;48.200;16.338;2024-01-10T19:23:29;-0.40;99.90
40053;DHT22;25758;48.200;16.338;2024-01-10T19:25:55;-0.40;99.90
40053;DHT22;25758;48.200;16.338;2024-01-10T19:33:14;-0.40;99.90
40053;DHT22;25758;48.200;16.338;2024-01-10T19:35:40;-0.40;99.90
40053;DHT22;25758;48.200;16.338;2024-01-10T19:38:06;0.80;99.90
40053;DHT22;25758;48.200;16.338;2024-01-10T19:40:31;0.10;99.90
40053;DHT22;25758;48.200;16.338;2024-01-10T19:42:57;3.00;99.90
40053;DHT22;25758;48.200;16.338;2024-01-10T19:45:23;-0.40;99.90
40053;DHT22;25758;48.200;16.338;2024-01-10T19:52:40;-0.50;99.90
40053;DHT22;25758;48.200;16.338;2024-01-10T19:55:06;-0.50;99.90
40053;DHT22;25758;48.200;16.338;2024-01-10T19:57:32;-0.50;99.90
40053;DHT22;25758;48.200;16.338;2024-01-10T20:04:52;-0.50;99.90
40053;DHT22;25758;48.200;16.338;2024-01-10T20:07:18;-0.50;99.90
40053;DHT22;25758;48.200;16.338;2024-01-10T20:12:11;-0.60;99.90
40053;DHT22;25758;48.200;16.338;2024-01-10T20:14:38;-0.60;99.90
40053;DHT22;25758;48.200;16.338;2024-01-10T20:17:04;-0.60;99.90
40053;DHT22;25758;48.200;16.338;2024-01-10T20:24:22;-0.60;99.90
40053;DHT22;25758;48.200;16.338;2024-01-10T20:31:40;-0.70;99.90
40053;DHT22;25758;48.200;16.338;2024-01-10T20:34:05;-0.70;99.90
40053;DHT22;25758;48.200;16.338;2024-01-10T20:36:31;-0.90;99.90
40053;DHT22;25758;48.200;16.338;2024-01-10T20:39:01;-0.90;99.90
40053;DHT22;25758;48.200;16.338;2024-01-10T20:41:28;-0.80;99.90
40053;DHT22;25758;48.200;16.338;2024-01-10T20:51:12;-0.90;99.90
40053;DHT22;25758;48.200;16.338;2024-01-10T20:56:05;-4.10;99.90
40053;DHT22;25758;48.200;16.338;2024-01-10T20:58:31;-0.80;99.90
40053;DHT22;25758;48.200;16.338;2024-01-10T21:05:55;-0.90;99.90
40053;DHT22;25758;48.200;16.338;2024-01-10T21:08:20;0.30;99.90
40053;DHT22;25758;48.200;16.338;2024-01-10T21:10:46;-0.90;99.90
40053;DHT22;25758;48.200;16.338;2024-01-10T21:18:04;-0.90;99.90
40053;DHT22;25758;48.200;16.338;2024-01-10T21:20:29;-1.00;99.90
40053;DHT22;25758;48.200;16.338;2024-01-10T21:22:55;-0.90;99.90
40053;DHT22;25758;48.200;16.338;2024-01-10T21:27:47;-0.90;99.90
40053;DHT22;25758;48.200;16.338;2024-01-10T21:30:13;-1.00;99.90
40053;DHT22;25758;48.200;16.338;2024-01-10T21:32:39;-0.90;99.90
40053;DHT22;25758;48.200;16.338;2024-01-10T21:35:05;-0.90;99.90
40053;DHT22;25758;48.200;16.338;2024-01-10T21:39:57;-0.90;99.90
40053;DHT22;25758;48.200;16.338;2024-01-10T21:42:22;-0.90;99.90
40053;DHT22;25758;48.200;16.338;2024-01-10T21:44:48;-0.80;99.90
40053;DHT22;25758;48.200;16.338;2024-01-10T21:47:14;-0.90;99.90
40053;DHT22;25758;48.200;16.338;2024-01-10T21:52:06;-0.90;99.90
40053;DHT22;25758;48.200;16.338;2024-01-10T21:56:58;-0.90;99.90
40053;DHT22;25758;48.200;16.338;2024-01-10T21:59:24;-0.90;99.90
40053;DHT22;25758;48.200;16.338;2024-01-10T22:01:49;-1.00;99.90
40053;DHT22;25758;48.200;16.338;2024-01-10T22:06:42;-0.90;99.90
40053;DHT22;25758;48.200;16.338;2024-01-10T22:09:09;-0.90;99.90
40053;DHT22;25758;48.200;16.338;2024-01-10T22:14:01;-0.90;99.90
40053;DHT22;25758;48.200;16.338;2024-01-10T22:18:53;-0.90;99.90
40053;DHT22;25758;48.200;16.338;2024-01-10T22:21:18;-0.90;99.90
40053;DHT22;25758;48.200;16.338;2024-01-10T22:31:02;-0.90;99.90
40053;DHT22;25758;48.200;16.338;2024-01-10T22:35:54;-1.00;99.90
40053;DHT22;25758;48.200;16.338;2024-01-10T22:38:20;-0.90;99.90
40053;DHT22;25758;48.200;16.338;2024-01-10T22:43:11;-1.00;99.90
40053;DHT22;25758;48.200;16.338;2024-01-10T22:52:55;-1.00;99.90
40053;DHT22;25758;48.200;16.338;2024-01-10T22:55:21;0.80;99.90
40053;DHT22;25758;48.200;16.338;2024-01-10T23:00:16;-1.10;99.90
40053;DHT22;25758;48.200;16.338;2024-01-10T23:02:47;-1.10;99.90
40053;DHT22;25758;48.200;16.338;2024-01-10T23:05:13;-1.10;99.90
40053;DHT22;25758;48.200;16.338;2024-01-10T23:10:05;-1.20;99.90
40053;DHT22;25758;48.200;16.338;2024-01-10T23:12:31;-1.20;99.90